sensor_id;sensor_type;location;lat;lon;timestamp;temperature;humidity
6375;DHT22;35400;45.472;-122.822;2022-07-10T00:02:03;27.90;84.60
6375;DHT22;35400;45.472;-122.822;2022-07-10T00:04:29;27.70;83.70
6375;DHT22;35400;45.472;-122.822;2022-07-10T00:06:56;27.60;83.60
6375;DHT22;35400;45.472;-122.822;2022-07-10T00:09:24;27.50;83.50
6375;DHT22;35400;45.472;-122.822;2022-07-10T00:11:51;27.40;84.00
6375;DHT22;35400;45.472;-122.822;2022-07-10T00:14:17;27.20;84.00
6375;DHT22;35400;45.472;-122.822;2022-07-10T00:16:44;27.20;84.50
6375;DHT22;35400;45.472;-122.822;2022-07-10T00:19:10;27.10;84.00
6375;DHT22;35400;45.472;-122.822;2022-07-10T00:21:36;27.00;84.60
6375;DHT22;35400;45.472;-122.822;2022-07-10T00:24:03;26.90;84.40
6375;DHT22;35400;45.472;-122.822;2022-07-10T00:26:30;27.00;84.20
6375;DHT22;35400;45.472;-122.822;2022-07-10T00:28:56;26.90;85.10
6375;DHT22;35400;45.472;-122.822;2022-07-10T00:31:23;26.80;85.30
6375;DHT22;35400;45.472;-122.822;2022-07-10T00:33:49;26.80;85.00
6375;DHT22;35400;45.472;-122.822;2022-07-10T00:36:16;26.70;84.60
6375;DHT22;35400;45.472;-122.822;2022-07-10T00:38:43;26.60;85.40
6375;DHT22;35400;45.472;-122.822;2022-07-10T00:41:09;26.50;86.00
6375;DHT22;35400;45.472;-122.822;2022-07-10T00:43:55;26.50;86.50
6375;DHT22;35400;45.472;-122.822;2022-07-10T00:46:24;26.50;87.40
6375;DHT22;35400;45.472;-122.822;2022-07-10T00:48:51;26.40;87.50
6375;DHT22;35400;45.472;-122.822;2022-07-10T00:51:21;26.50;87.10
6375;DHT22;35400;45.472;-122.822;2022-07-10T00:53:49;26.50;85.90
6375;DHT22;35400;45.472;-122.822;2022-07-10T00:56:21;26.40;86.50
6375;DHT22;35400;45.472;-122.822;2022-07-10T00:58:47;26.40;87.80
6375;DHT22;35400;45.472;-122.822;2022-07-10T01:01:15;26.40;87.80
6375;DHT22;35400;45.472;-122.822;2022-07-10T01:03:42;26.30;88.70
6375;DHT22;35400;45.472;-122.822;2022-07-10T01:06:13;26.20;89.70
6375;DHT22;35400;45.472;-122.822;2022-07-10T01:08:39;26.10;89.60
6375;DHT22;35400;45.472;-122.822;2022-07-10T01:11:06;26.10;88.70
6375;DHT22;35400;45.472;-122.822;2022-07-10T01:13:33;25.90;88.20
6375;DHT22;35400;45.472;-122.822;2022-07-10T01:15:59;25.90;89.00
6375;DHT22;35400;45.472;-122.822;2022-07-10T01:18:26;25.90;88.90
6375;DHT22;35400;45.472;-122.822;2022-07-10T01:20:54;25.70;88.90
6375;DHT22;35400;45.472;-122.822;2022-07-10T01:23:21;25.60;89.50
6375;DHT22;35400;45.472;-122.822;2022-07-10T01:25:48;25.50;89.50
6375;DHT22;35400;45.472;-122.822;2022-07-10T01:28:16;25.40;89.90
6375;DHT22;35400;45.472;-122.822;2022-07-10T01:30:43;25.40;90.00
6375;DHT22;35400;45.472;-122.822;2022-07-10T01:33:10;25.30;90.20
6375;DHT22;35400;45.472;-122.822;2022-07-10T01:35:36;25.40;90.30
6375;DHT22;35400;45.472;-122.822;2022-07-10T01:38:03;25.40;90.20
6375;DHT22;35400;45.472;-122.822;2022-07-10T01:40:29;25.40;90.50
6375;DHT22;35400;45.472;-122.822;2022-07-10T01:42:56;25.40;90.40
6375;DHT22;35400;45.472;-122.822;2022-07-10T01:45:23;25.40;90.50
6375;DHT22;35400;45.472;-122.822;2022-07-10T01:47:49;25.40;90.40
6375;DHT22;35400;45.472;-122.822;2022-07-10T01:50:16;25.40;90.40
6375;DHT22;35400;45.472;-122.822;2022-07-10T01:52:42;25.30;90.30
6375;DHT22;35400;45.472;-122.822;2022-07-10T01:55:09;25.30;90.50
6375;DHT22;35400;45.472;-122.822;2022-07-10T01:57:36;25.30;90.30
6375;DHT22;35400;45.472;-122.822;2022-07-10T02:00:03;25.30;90.40
6375;DHT22;35400;45.472;-122.822;2022-07-10T02:02:29;25.20;90.60
6375;DHT22;35400;45.472;-122.822;2022-07-10T02:04:55;25.20;90.70
6375;DHT22;35400;45.472;-122.822;2022-07-10T02:07:22;25.20;90.60
6375;DHT22;35400;45.472;-122.822;2022-07-10T02:09:51;25.20;90.60
6375;DHT22;35400;45.472;-122.822;2022-07-10T02:12:18;25.00;90.80
6375;DHT22;35400;45.472;-122.822;2022-07-10T02:14:44;24.90;91.10
6375;DHT22;35400;45.472;-122.822;2022-07-10T02:17:10;24.90;90.90
6375;DHT22;35400;45.472;-122.822;2022-07-10T02:19:37;24.90;91.00
6375;DHT22;35400;45.472;-122.822;2022-07-10T02:22:03;24.90;90.80
6375;DHT22;35400;45.472;-122.822;2022-07-10T02:24:30;24.90;90.80
6375;DHT22;35400;45.472;-122.822;2022-07-10T02:26:56;24.80;90.60
6375;DHT22;35400;45.472;-122.822;2022-07-10T02:29:23;24.80;90.60
6375;DHT22;35400;45.472;-122.822;2022-07-10T02:31:50;24.70;90.80
6375;DHT22;35400;45.472;-122.822;2022-07-10T02:34:16;24.60;91.00
6375;DHT22;35400;45.472;-122.822;2022-07-10T02:36:43;24.50;91.10
6375;DHT22;35400;45.472;-122.822;2022-07-10T02:39:09;24.40;91.00
6375;DHT22;35400;45.472;-122.822;2022-07-10T02:41:36;24.40;91.10
6375;DHT22;35400;45.472;-122.822;2022-07-10T02:44:03;24.30;91.10
6375;DHT22;35400;45.472;-122.822;2022-07-10T02:46:29;24.20;91.40
6375;DHT22;35400;45.472;-122.822;2022-07-10T02:48:55;24.10;91.20
6375;DHT22;35400;45.472;-122.822;2022-07-10T02:51:22;24.10;91.50
6375;DHT22;35400;45.472;-122.822;2022-07-10T02:53:48;23.90;91.80
6375;DHT22;35400;45.472;-122.822;2022-07-10T02:56:15;23.80;92.10
6375;DHT22;35400;45.472;-122.822;2022-07-10T02:58:41;23.70;92.40
6375;DHT22;35400;45.472;-122.822;2022-07-10T03:01:08;23.70;92.10
6375;DHT22;35400;45.472;-122.822;2022-07-10T03:03:34;23.60;92.10
6375;DHT22;35400;45.472;-122.822;2022-07-10T03:06:01;23.60;92.10
6375;DHT22;35400;45.472;-122.822;2022-07-10T03:08:27;23.50;92.30
6375;DHT22;35400;45.472;-122.822;2022-07-10T03:10:55;23.50;92.50
6375;DHT22;35400;45.472;-122.822;2022-07-10T03:13:21;23.50;92.60
6375;DHT22;35400;45.472;-122.822;2022-07-10T03:15:48;23.30;92.90
6375;DHT22;35400;45.472;-122.822;2022-07-10T03:18:14;23.40;92.70
6375;DHT22;35400;45.472;-122.822;2022-07-10T03:20:40;23.30;92.70
6375;DHT22;35400;45.472;-122.822;2022-07-10T03:23:07;23.20;92.80
6375;DHT22;35400;45.472;-122.822;2022-07-10T03:25:33;23.20;92.80
6375;DHT22;35400;45.472;-122.822;2022-07-10T03:27:59;23.10;92.50
6375;DHT22;35400;45.472;-122.822;2022-07-10T03:30:26;23.10;92.20
6375;DHT22;35400;45.472;-122.822;2022-07-10T03:32:52;23.10;92.10
6375;DHT22;35400;45.472;-122.822;2022-07-10T03:35:18;23.00;92.20
6375;DHT22;35400;45.472;-122.822;2022-07-10T03:37:45;22.90;92.30
6375;DHT22;35400;45.472;-122.822;2022-07-10T03:40:12;22.90;92.30
6375;DHT22;35400;45.472;-122.822;2022-07-10T03:42:38;22.80;92.30
6375;DHT22;35400;45.472;-122.822;2022-07-10T03:45:05;22.70;92.60
6375;DHT22;35400;45.472;-122.822;2022-07-10T03:47:31;22.70;92.40
6375;DHT22;35400;45.472;-122.822;2022-07-10T03:49:58;22.70;92.20
6375;DHT22;35400;45.472;-122.822;2022-07-10T03:52:24;22.60;92.20
6375;DHT22;35400;45.472;-122.822;2022-07-10T03:54:53;22.60;92.40
6375;DHT22;35400;45.472;-122.822;2022-07-10T03:57:19;22.50;92.50
6375;DHT22;35400;45.472;-122.822;2022-07-10T04:00:04;22.50;92.50
6375;DHT22;35400;45.472;-122.822;2022-07-10T04:02:31;22.40;92.50
6375;DHT22;35400;45.472;-122.822;2022-07-10T04:04:57;22.30;92.80
6375;DHT22;35400;45.472;-122.822;2022-07-10T04:07:23;22.20;92.90
6375;DHT22;35400;45.472;-122.822;2022-07-10T04:09:50;22.20;93.00
6375;DHT22;35400;45.472;-122.822;2022-07-10T04:12:16;22.10;93.30
6375;DHT22;35400;45.472;-122.822;2022-07-10T04:14:42;22.00;93.30
6375;DHT22;35400;45.472;-122.822;2022-07-10T04:17:09;22.00;93.40
6375;DHT22;35400;45.472;-122.822;2022-07-10T04:19:35;21.90;93.40
6375;DHT22;35400;45.472;-122.822;2022-07-10T04:22:02;21.80;93.20
6375;DHT22;35400;45.472;-122.822;2022-07-10T04:24:28;21.80;93.40
6375;DHT22;35400;45.472;-122.822;2022-07-10T04:26:54;21.70;93.50
6375;DHT22;35400;45.472;-122.822;2022-07-10T04:29:21;21.60;93.60
6375;DHT22;35400;45.472;-122.822;2022-07-10T04:31:48;21.50;93.50
6375;DHT22;35400;45.472;-122.822;2022-07-10T04:34:15;21.50;93.50
6375;DHT22;35400;45.472;-122.822;2022-07-10T04:36:41;21.40;93.50
6375;DHT22;35400;45.472;-122.822;2022-07-10T04:39:07;21.30;93.60
6375;DHT22;35400;45.472;-122.822;2022-07-10T04:41:34;21.20;93.70
6375;DHT22;35400;45.472;-122.822;2022-07-10T04:44:00;21.20;93.80
6375;DHT22;35400;45.472;-122.822;2022-07-10T04:46:27;21.10;93.90
6375;DHT22;35400;45.472;-122.822;2022-07-10T04:48:53;21.10;93.80
6375;DHT22;35400;45.472;-122.822;2022-07-10T04:51:20;21.00;93.80
6375;DHT22;35400;45.472;-122.822;2022-07-10T04:53:46;20.90;93.90
6375;DHT22;35400;45.472;-122.822;2022-07-10T04:56:12;20.80;94.00
6375;DHT22;35400;45.472;-122.822;2022-07-10T04:58:39;20.70;94.20
6375;DHT22;35400;45.472;-122.822;2022-07-10T05:01:05;20.60;94.20
6375;DHT22;35400;45.472;-122.822;2022-07-10T05:03:32;20.50;94.30
6375;DHT22;35400;45.472;-122.822;2022-07-10T05:05:58;20.40;94.40
6375;DHT22;35400;45.472;-122.822;2022-07-10T05:08:24;20.30;94.50
6375;DHT22;35400;45.472;-122.822;2022-07-10T05:10:51;20.30;94.70
6375;DHT22;35400;45.472;-122.822;2022-07-10T05:13:17;20.20;94.80
6375;DHT22;35400;45.472;-122.822;2022-07-10T05:15:46;20.20;94.80
6375;DHT22;35400;45.472;-122.822;2022-07-10T05:18:13;20.20;94.70
6375;DHT22;35400;45.472;-122.822;2022-07-10T05:20:39;20.10;94.70
6375;DHT22;35400;45.472;-122.822;2022-07-10T05:23:09;20.00;94.70
6375;DHT22;35400;45.472;-122.822;2022-07-10T05:25:36;20.00;94.60
6375;DHT22;35400;45.472;-122.822;2022-07-10T05:28:04;19.90;94.50
6375;DHT22;35400;45.472;-122.822;2022-07-10T05:30:31;19.80;94.50
6375;DHT22;35400;45.472;-122.822;2022-07-10T05:32:58;19.80;94.60
6375;DHT22;35400;45.472;-122.822;2022-07-10T05:35:24;19.70;94.40
6375;DHT22;35400;45.472;-122.822;2022-07-10T05:37:50;19.60;94.40
6375;DHT22;35400;45.472;-122.822;2022-07-10T05:40:17;19.60;94.30
6375;DHT22;35400;45.472;-122.822;2022-07-10T05:42:44;19.60;94.30
6375;DHT22;35400;45.472;-122.822;2022-07-10T05:45:11;19.50;94.30
6375;DHT22;35400;45.472;-122.822;2022-07-10T05:47:38;19.40;94.40
6375;DHT22;35400;45.472;-122.822;2022-07-10T05:50:05;19.40;94.40
6375;DHT22;35400;45.472;-122.822;2022-07-10T05:52:31;19.30;94.50
6375;DHT22;35400;45.472;-122.822;2022-07-10T05:54:58;19.30;94.50
6375;DHT22;35400;45.472;-122.822;2022-07-10T05:57:24;19.20;94.70
6375;DHT22;35400;45.472;-122.822;2022-07-10T05:59:51;19.10;94.70
6375;DHT22;35400;45.472;-122.822;2022-07-10T06:02:18;19.20;94.80
6375;DHT22;35400;45.472;-122.822;2022-07-10T06:04:45;19.10;94.80
6375;DHT22;35400;45.472;-122.822;2022-07-10T06:07:12;19.00;95.00
6375;DHT22;35400;45.472;-122.822;2022-07-10T06:09:39;18.90;95.20
6375;DHT22;35400;45.472;-122.822;2022-07-10T06:12:05;18.90;95.40
6375;DHT22;35400;45.472;-122.822;2022-07-10T06:14:32;18.80;95.50
6375;DHT22;35400;45.472;-122.822;2022-07-10T06:16:58;18.70;95.60
6375;DHT22;35400;45.472;-122.822;2022-07-10T06:19:25;18.60;95.70
6375;DHT22;35400;45.472;-122.822;2022-07-10T06:21:51;18.60;95.90
6375;DHT22;35400;45.472;-122.822;2022-07-10T06:24:38;18.50;96.10
6375;DHT22;35400;45.472;-122.822;2022-07-10T06:27:04;18.50;96.20
6375;DHT22;35400;45.472;-122.822;2022-07-10T06:29:31;18.40;96.20
6375;DHT22;35400;45.472;-122.822;2022-07-10T06:31:57;18.40;96.30
6375;DHT22;35400;45.472;-122.822;2022-07-10T06:34:24;18.30;96.40
6375;DHT22;35400;45.472;-122.822;2022-07-10T06:36:50;18.30;96.70
6375;DHT22;35400;45.472;-122.822;2022-07-10T06:39:17;18.20;96.80
6375;DHT22;35400;45.472;-122.822;2022-07-10T06:41:43;18.10;97.00
6375;DHT22;35400;45.472;-122.822;2022-07-10T06:44:09;18.00;97.10
6375;DHT22;35400;45.472;-122.822;2022-07-10T06:46:36;17.90;97.20
6375;DHT22;35400;45.472;-122.822;2022-07-10T06:49:02;17.80;97.20
6375;DHT22;35400;45.472;-122.822;2022-07-10T06:51:29;17.80;97.40
6375;DHT22;35400;45.472;-122.822;2022-07-10T06:53:56;17.70;97.60
6375;DHT22;35400;45.472;-122.822;2022-07-10T06:56:23;17.70;97.80
6375;DHT22;35400;45.472;-122.822;2022-07-10T06:58:49;17.60;98.00
6375;DHT22;35400;45.472;-122.822;2022-07-10T07:01:16;17.60;98.00
6375;DHT22;35400;45.472;-122.822;2022-07-10T07:03:42;17.50;98.10
6375;DHT22;35400;45.472;-122.822;2022-07-10T07:06:08;17.50;98.30
6375;DHT22;35400;45.472;-122.822;2022-07-10T07:08:36;17.40;98.50
6375;DHT22;35400;45.472;-122.822;2022-07-10T07:11:02;17.40;98.60
6375;DHT22;35400;45.472;-122.822;2022-07-10T07:13:29;17.40;98.80
6375;DHT22;35400;45.472;-122.822;2022-07-10T07:15:55;17.30;98.90
6375;DHT22;35400;45.472;-122.822;2022-07-10T07:18:27;17.30;99.10
6375;DHT22;35400;45.472;-122.822;2022-07-10T07:21:01;17.30;99.10
6375;DHT22;35400;45.472;-122.822;2022-07-10T07:23:46;17.30;99.30
6375;DHT22;35400;45.472;-122.822;2022-07-10T07:26:12;17.30;99.30
6375;DHT22;35400;45.472;-122.822;2022-07-10T07:28:39;17.30;99.30
6375;DHT22;35400;45.472;-122.822;2022-07-10T07:31:05;17.30;99.60
6375;DHT22;35400;45.472;-122.822;2022-07-10T07:33:32;17.30;99.70
6375;DHT22;35400;45.472;-122.822;2022-07-10T07:35:58;17.30;99.70
6375;DHT22;35400;45.472;-122.822;2022-07-10T07:38:26;17.30;99.90
6375;DHT22;35400;45.472;-122.822;2022-07-10T07:40:52;17.30;99.90
6375;DHT22;35400;45.472;-122.822;2022-07-10T07:43:19;17.20;99.90
6375;DHT22;35400;45.472;-122.822;2022-07-10T07:45:45;17.20;99.90
6375;DHT22;35400;45.472;-122.822;2022-07-10T07:48:11;17.10;99.90
6375;DHT22;35400;45.472;-122.822;2022-07-10T07:50:38;17.10;99.90
6375;DHT22;35400;45.472;-122.822;2022-07-10T07:53:05;17.00;99.90
6375;DHT22;35400;45.472;-122.822;2022-07-10T07:55:33;17.00;99.90
6375;DHT22;35400;45.472;-122.822;2022-07-10T07:58:01;16.90;99.90
6375;DHT22;35400;45.472;-122.822;2022-07-10T08:00:29;16.80;99.90
6375;DHT22;35400;45.472;-122.822;2022-07-10T08:02:56;16.80;99.90
6375;DHT22;35400;45.472;-122.822;2022-07-10T08:05:23;16.70;99.90
6375;DHT22;35400;45.472;-122.822;2022-07-10T08:07:55;16.70;99.90
6375;DHT22;35400;45.472;-122.822;2022-07-10T08:10:24;16.60;99.90
6375;DHT22;35400;45.472;-122.822;2022-07-10T08:12:52;16.60;99.90
6375;DHT22;35400;45.472;-122.822;2022-07-10T08:15:20;16.60;99.90
6375;DHT22;35400;45.472;-122.822;2022-07-10T08:17:51;16.50;99.90
6375;DHT22;35400;45.472;-122.822;2022-07-10T08:20:17;16.50;99.90
6375;DHT22;35400;45.472;-122.822;2022-07-10T08:22:44;16.50;99.90
6375;DHT22;35400;45.472;-122.822;2022-07-10T08:25:11;16.40;99.90
6375;DHT22;35400;45.472;-122.822;2022-07-10T08:27:38;16.30;99.90
6375;DHT22;35400;45.472;-122.822;2022-07-10T08:30:06;16.30;99.90
6375;DHT22;35400;45.472;-122.822;2022-07-10T08:32:35;16.20;99.90
6375;DHT22;35400;45.472;-122.822;2022-07-10T08:35:04;16.20;99.90
6375;DHT22;35400;45.472;-122.822;2022-07-10T08:37:36;16.10;99.90
6375;DHT22;35400;45.472;-122.822;2022-07-10T08:40:02;16.10;99.90
6375;DHT22;35400;45.472;-122.822;2022-07-10T08:42:31;16.10;99.90
6375;DHT22;35400;45.472;-122.822;2022-07-10T08:44:58;16.10;99.90
6375;DHT22;35400;45.472;-122.822;2022-07-10T08:47:25;16.00;99.90
6375;DHT22;35400;45.472;-122.822;2022-07-10T08:49:53;16.00;99.90
6375;DHT22;35400;45.472;-122.822;2022-07-10T08:52:30;15.90;99.90
6375;DHT22;35400;45.472;-122.822;2022-07-10T08:54:58;16.00;99.90
6375;DHT22;35400;45.472;-122.822;2022-07-10T08:57:26;15.90;99.90
6375;DHT22;35400;45.472;-122.822;2022-07-10T08:59:52;15.90;99.90
6375;DHT22;35400;45.472;-122.822;2022-07-10T09:02:19;15.80;99.90
6375;DHT22;35400;45.472;-122.822;2022-07-10T09:04:46;15.80;99.90
6375;DHT22;35400;45.472;-122.822;2022-07-10T09:07:13;15.80;99.90
6375;DHT22;35400;45.472;-122.822;2022-07-10T09:09:56;15.70;99.90
6375;DHT22;35400;45.472;-122.822;2022-07-10T09:12:24;15.70;99.90
6375;DHT22;35400;45.472;-122.822;2022-07-10T09:14:51;15.70;99.90
6375;DHT22;35400;45.472;-122.822;2022-07-10T09:17:18;15.60;99.90
6375;DHT22;35400;45.472;-122.822;2022-07-10T09:19:45;15.70;99.90
6375;DHT22;35400;45.472;-122.822;2022-07-10T09:22:12;15.60;99.90
6375;DHT22;35400;45.472;-122.822;2022-07-10T09:24:42;15.60;99.90
6375;DHT22;35400;45.472;-122.822;2022-07-10T09:27:11;15.60;99.90
6375;DHT22;35400;45.472;-122.822;2022-07-10T09:29:48;15.60;99.90
6375;DHT22;35400;45.472;-122.822;2022-07-10T09:32:16;15.60;99.90
6375;DHT22;35400;45.472;-122.822;2022-07-10T09:34:47;15.50;99.90
6375;DHT22;35400;45.472;-122.822;2022-07-10T09:37:32;15.50;99.90
6375;DHT22;35400;45.472;-122.822;2022-07-10T09:40:03;15.50;99.90
6375;DHT22;35400;45.472;-122.822;2022-07-10T09:53:07;15.40;99.90
6375;DHT22;35400;45.472;-122.822;2022-07-10T09:55:38;15.30;99.90
6375;DHT22;35400;45.472;-122.822;2022-07-10T09:58:06;15.30;99.90
6375;DHT22;35400;45.472;-122.822;2022-07-10T10:00:37;15.30;99.90
6375;DHT22;35400;45.472;-122.822;2022-07-10T10:03:09;15.40;99.90
6375;DHT22;35400;45.472;-122.822;2022-07-10T10:05:42;15.40;99.90
6375;DHT22;35400;45.472;-122.822;2022-07-10T10:08:17;15.40;99.90
6375;DHT22;35400;45.472;-122.822;2022-07-10T10:10:49;15.40;99.90
6375;DHT22;35400;45.472;-122.822;2022-07-10T10:13:18;15.40;99.90
6375;DHT22;35400;45.472;-122.822;2022-07-10T10:15:47;15.40;99.90
6375;DHT22;35400;45.472;-122.822;2022-07-10T10:18:17;15.40;99.90
6375;DHT22;35400;45.472;-122.822;2022-07-10T10:20:46;15.40;99.90
6375;DHT22;35400;45.472;-122.822;2022-07-10T10:23:15;15.30;99.90
6375;DHT22;35400;45.472;-122.822;2022-07-10T10:25:51;15.30;99.90
6375;DHT22;35400;45.472;-122.822;2022-07-10T10:28:19;15.30;99.90
6375;DHT22;35400;45.472;-122.822;2022-07-10T10:30:54;15.30;99.90
6375;DHT22;35400;45.472;-122.822;2022-07-10T10:36:06;15.40;99.90
6375;DHT22;35400;45.472;-122.822;2022-07-10T10:41:37;15.40;99.90
6375;DHT22;35400;45.472;-122.822;2022-07-10T10:49:23;15.30;99.90
6375;DHT22;35400;45.472;-122.822;2022-07-10T10:52:03;15.30;99.90
6375;DHT22;35400;45.472;-122.822;2022-07-10T10:59:59;15.30;99.90
6375;DHT22;35400;45.472;-122.822;2022-07-10T11:02:30;15.30;99.90
6375;DHT22;35400;45.472;-122.822;2022-07-10T11:07:59;15.30;99.90
6375;DHT22;35400;45.472;-122.822;2022-07-10T11:10:34;15.20;99.90
6375;DHT22;35400;45.472;-122.822;2022-07-10T11:15:42;15.10;99.90
6375;DHT22;35400;45.472;-122.822;2022-07-10T11:18:12;15.10;99.90
6375;DHT22;35400;45.472;-122.822;2022-07-10T11:20:42;15.00;99.90
6375;DHT22;35400;45.472;-122.822;2022-07-10T11:26:06;14.90;99.90
6375;DHT22;35400;45.472;-122.822;2022-07-10T11:28:51;14.90;99.90
6375;DHT22;35400;45.472;-122.822;2022-07-10T11:31:19;14.80;99.90
6375;DHT22;35400;45.472;-122.822;2022-07-10T11:33:48;14.80;99.90
6375;DHT22;35400;45.472;-122.822;2022-07-10T11:36:22;14.80;99.90
6375;DHT22;35400;45.472;-122.822;2022-07-10T11:39:02;14.70;99.90
6375;DHT22;35400;45.472;-122.822;2022-07-10T11:41:29;14.70;99.90
6375;DHT22;35400;45.472;-122.822;2022-07-10T11:43:58;14.60;99.90
6375;DHT22;35400;45.472;-122.822;2022-07-10T11:46:26;14.60;99.90
6375;DHT22;35400;45.472;-122.822;2022-07-10T11:48:54;14.60;99.90
6375;DHT22;35400;45.472;-122.822;2022-07-10T11:51:38;14.50;99.90
6375;DHT22;35400;45.472;-122.822;2022-07-10T11:54:13;14.50;99.90
6375;DHT22;35400;45.472;-122.822;2022-07-10T11:56:47;14.40;99.90
6375;DHT22;35400;45.472;-122.822;2022-07-10T11:59:15;14.40;99.90
6375;DHT22;35400;45.472;-122.822;2022-07-10T12:01:43;14.30;99.90
6375;DHT22;35400;45.472;-122.822;2022-07-10T12:04:11;14.30;99.90
6375;DHT22;35400;45.472;-122.822;2022-07-10T12:06:39;14.30;99.90
6375;DHT22;35400;45.472;-122.822;2022-07-10T12:09:11;14.20;99.90
6375;DHT22;35400;45.472;-122.822;2022-07-10T12:11:39;14.20;99.90
6375;DHT22;35400;45.472;-122.822;2022-07-10T12:14:17;14.20;99.90
6375;DHT22;35400;45.472;-122.822;2022-07-10T12:16:48;14.10;99.90
6375;DHT22;35400;45.472;-122.822;2022-07-10T12:19:16;14.10;99.90
6375;DHT22;35400;45.472;-122.822;2022-07-10T12:21:44;14.10;99.90
6375;DHT22;35400;45.472;-122.822;2022-07-10T12:24:12;14.00;99.90
6375;DHT22;35400;45.472;-122.822;2022-07-10T12:26:40;14.00;99.90
6375;DHT22;35400;45.472;-122.822;2022-07-10T12:29:24;14.00;99.90
6375;DHT22;35400;45.472;-122.822;2022-07-10T12:31:53;14.00;99.90
6375;DHT22;35400;45.472;-122.822;2022-07-10T12:34:43;13.90;99.90
6375;DHT22;35400;45.472;-122.822;2022-07-10T12:37:11;13.90;99.90
6375;DHT22;35400;45.472;-122.822;2022-07-10T12:39:47;13.90;99.90
6375;DHT22;35400;45.472;-122.822;2022-07-10T12:42:30;13.90;99.90
6375;DHT22;35400;45.472;-122.822;2022-07-10T12:45:15;13.90;99.90
6375;DHT22;35400;45.472;-122.822;2022-07-10T12:47:46;13.90;99.90
6375;DHT22;35400;45.472;-122.822;2022-07-10T12:50:15;13.90;99.90
6375;DHT22;35400;45.472;-122.822;2022-07-10T12:52:46;13.90;99.90
6375;DHT22;35400;45.472;-122.822;2022-07-10T12:55:16;13.90;99.90
6375;DHT22;35400;45.472;-122.822;2022-07-10T12:57:49;13.90;99.90
6375;DHT22;35400;45.472;-122.822;2022-07-10T13:00:35;13.90;99.90
6375;DHT22;35400;45.472;-122.822;2022-07-10T13:03:07;13.90;99.90
6375;DHT22;35400;45.472;-122.822;2022-07-10T13:05:43;13.90;99.90
6375;DHT22;35400;45.472;-122.822;2022-07-10T13:08:19;13.90;99.90
6375;DHT22;35400;45.472;-122.822;2022-07-10T13:10:58;13.90;99.90
6375;DHT22;35400;45.472;-122.822;2022-07-10T13:13:25;13.90;99.90
6375;DHT22;35400;45.472;-122.822;2022-07-10T13:15:51;13.90;99.90
6375;DHT22;35400;45.472;-122.822;2022-07-10T13:18:26;13.90;99.90
6375;DHT22;35400;45.472;-122.822;2022-07-10T13:20:55;14.00;99.90
6375;DHT22;35400;45.472;-122.822;2022-07-10T13:23:21;14.00;99.90
6375;DHT22;35400;45.472;-122.822;2022-07-10T13:25:50;14.00;99.90
6375;DHT22;35400;45.472;-122.822;2022-07-10T13:28:16;14.10;99.90
6375;DHT22;35400;45.472;-122.822;2022-07-10T13:30:43;14.10;99.90
6375;DHT22;35400;45.472;-122.822;2022-07-10T13:33:10;14.20;99.90
6375;DHT22;35400;45.472;-122.822;2022-07-10T13:35:37;14.40;99.90
6375;DHT22;35400;45.472;-122.822;2022-07-10T13:38:04;15.20;99.90
6375;DHT22;35400;45.472;-122.822;2022-07-10T13:40:36;16.20;99.90
6375;DHT22;35400;45.472;-122.822;2022-07-10T13:43:03;17.20;99.90
6375;DHT22;35400;45.472;-122.822;2022-07-10T13:45:30;18.20;99.90
6375;DHT22;35400;45.472;-122.822;2022-07-10T13:48:03;19.40;99.90
6375;DHT22;35400;45.472;-122.822;2022-07-10T13:50:30;20.40;99.90
6375;DHT22;35400;45.472;-122.822;2022-07-10T13:52:57;20.90;99.90
6375;DHT22;35400;45.472;-122.822;2022-07-10T13:55:23;21.40;99.90
6375;DHT22;35400;45.472;-122.822;2022-07-10T13:57:50;21.40;99.90
6375;DHT22;35400;45.472;-122.822;2022-07-10T14:00:16;20.80;99.90
6375;DHT22;35400;45.472;-122.822;2022-07-10T14:02:42;20.40;99.90
6375;DHT22;35400;45.472;-122.822;2022-07-10T14:05:09;20.30;99.90
6375;DHT22;35400;45.472;-122.822;2022-07-10T14:07:35;20.20;99.90
6375;DHT22;35400;45.472;-122.822;2022-07-10T14:10:02;20.10;99.90
6375;DHT22;35400;45.472;-122.822;2022-07-10T14:12:30;19.80;99.90
6375;DHT22;35400;45.472;-122.822;2022-07-10T14:14:58;19.70;99.90
6375;DHT22;35400;45.472;-122.822;2022-07-10T14:17:26;19.90;99.90
6375;DHT22;35400;45.472;-122.822;2022-07-10T14:19:54;19.70;99.90
6375;DHT22;35400;45.472;-122.822;2022-07-10T14:22:20;19.60;99.90
6375;DHT22;35400;45.472;-122.822;2022-07-10T14:24:47;19.40;99.90
6375;DHT22;35400;45.472;-122.822;2022-07-10T14:27:14;19.40;99.90
6375;DHT22;35400;45.472;-122.822;2022-07-10T14:29:40;19.40;99.90
6375;DHT22;35400;45.472;-122.822;2022-07-10T14:32:07;19.30;99.90
6375;DHT22;35400;45.472;-122.822;2022-07-10T14:34:33;19.20;99.90
6375;DHT22;35400;45.472;-122.822;2022-07-10T14:37:00;18.90;99.90
6375;DHT22;35400;45.472;-122.822;2022-07-10T14:39:27;18.70;99.90
6375;DHT22;35400;45.472;-122.822;2022-07-10T14:41:53;18.60;99.90
6375;DHT22;35400;45.472;-122.822;2022-07-10T14:44:20;18.50;99.90
6375;DHT22;35400;45.472;-122.822;2022-07-10T14:46:47;18.50;99.90
6375;DHT22;35400;45.472;-122.822;2022-07-10T14:49:13;18.40;99.90
6375;DHT22;35400;45.472;-122.822;2022-07-10T14:51:39;18.40;99.90
6375;DHT22;35400;45.472;-122.822;2022-07-10T14:54:06;18.30;99.90
6375;DHT22;35400;45.472;-122.822;2022-07-10T14:56:32;18.30;99.90
6375;DHT22;35400;45.472;-122.822;2022-07-10T14:58:59;18.30;99.90
6375;DHT22;35400;45.472;-122.822;2022-07-10T15:01:25;18.30;99.90
6375;DHT22;35400;45.472;-122.822;2022-07-10T15:03:51;18.30;99.90
6375;DHT22;35400;45.472;-122.822;2022-07-10T15:06:21;18.40;99.90
6375;DHT22;35400;45.472;-122.822;2022-07-10T15:08:47;18.50;99.90
6375;DHT22;35400;45.472;-122.822;2022-07-10T15:11:17;18.60;99.90
6375;DHT22;35400;45.472;-122.822;2022-07-10T15:13:47;18.80;99.90
6375;DHT22;35400;45.472;-122.822;2022-07-10T15:16:13;18.90;99.90
6375;DHT22;35400;45.472;-122.822;2022-07-10T15:18:40;19.00;99.90
6375;DHT22;35400;45.472;-122.822;2022-07-10T15:21:07;19.30;99.90
6375;DHT22;35400;45.472;-122.822;2022-07-10T15:23:34;19.50;99.90
6375;DHT22;35400;45.472;-122.822;2022-07-10T15:26:00;19.70;99.90
6375;DHT22;35400;45.472;-122.822;2022-07-10T15:28:27;19.90;99.90
6375;DHT22;35400;45.472;-122.822;2022-07-10T15:30:53;20.10;99.90
6375;DHT22;35400;45.472;-122.822;2022-07-10T15:33:19;20.30;99.90
6375;DHT22;35400;45.472;-122.822;2022-07-10T15:35:46;20.50;99.90
6375;DHT22;35400;45.472;-122.822;2022-07-10T15:38:12;20.60;99.90
6375;DHT22;35400;45.472;-122.822;2022-07-10T15:40:39;20.80;99.90
6375;DHT22;35400;45.472;-122.822;2022-07-10T15:43:05;21.00;99.90
6375;DHT22;35400;45.472;-122.822;2022-07-10T15:45:33;21.20;99.90